sensor_id;sensor_type;location;lat;lon;timestamp;P1;durP1;ratioP1;P2;durP2;ratioP2
35917;SDS011;22011;59.912;30.300;2023-08-01T00:01:59;23.05;;;18.80;;
35917;SDS011;22011;59.912;30.300;2023-08-01T00:04:27;22.85;;;19.73;;
35917;SDS011;22011;59.912;30.300;2023-08-01T00:06:55;23.95;;;18.80;;
35917;SDS011;22011;59.912;30.300;2023-08-01T00:09:24;22.38;;;19.58;;
35917;SDS011;22011;59.912;30.300;2023-08-01T00:11:51;22.00;;;18.83;;
35917;SDS011;22011;59.912;30.300;2023-08-01T00:14:19;21.38;;;17.98;;
35917;SDS011;22011;59.912;30.300;2023-08-01T00:16:49;25.90;;;19.63;;
35917;SDS011;22011;59.912;30.300;2023-08-01T00:19:17;22.13;;;18.85;;
35917;SDS011;22011;59.912;30.300;2023-08-01T00:21:45;21.20;;;18.15;;
35917;SDS011;22011;59.912;30.300;2023-08-01T00:24:13;22.95;;;18.17;;
35917;SDS011;22011;59.912;30.300;2023-08-01T00:26:42;22.05;;;18.33;;
35917;SDS011;22011;59.912;30.300;2023-08-01T00:29:09;22.90;;;16.27;;
35917;SDS011;22011;59.912;30.300;2023-08-01T00:31:37;21.58;;;17.77;;
35917;SDS011;22011;59.912;30.300;2023-08-01T00:34:05;21.65;;;17.70;;
35917;SDS011;22011;59.912;30.300;2023-08-01T00:36:32;22.33;;;18.58;;
35917;SDS011;22011;59.912;30.300;2023-08-01T00:39:00;25.23;;;18.90;;
35917;SDS011;22011;59.912;30.300;2023-08-01T00:41:28;21.27;;;18.88;;
35917;SDS011;22011;59.912;30.300;2023-08-01T00:43:57;25.52;;;18.90;;
35917;SDS011;22011;59.912;30.300;2023-08-01T00:46:24;22.45;;;19.30;;
35917;SDS011;22011;59.912;30.300;2023-08-01T00:48:52;24.13;;;19.38;;
35917;SDS011;22011;59.912;30.300;2023-08-01T00:51:23;23.25;;;19.73;;
35917;SDS011;22011;59.912;30.300;2023-08-01T00:53:52;26.98;;;20.25;;
35917;SDS011;22011;59.912;30.300;2023-08-01T00:56:20;23.52;;;19.63;;
35917;SDS011;22011;59.912;30.300;2023-08-01T00:58:47;21.50;;;18.13;;
35917;SDS011;22011;59.912;30.300;2023-08-01T01:01:16;28.20;;;21.98;;
35917;SDS011;22011;59.912;30.300;2023-08-01T01:03:44;27.17;;;20.40;;
35917;SDS011;22011;59.912;30.300;2023-08-01T01:06:13;27.30;;;20.25;;
35917;SDS011;22011;59.912;30.300;2023-08-01T01:08:44;25.08;;;19.58;;
35917;SDS011;22011;59.912;30.300;2023-08-01T01:11:12;28.65;;;20.02;;
35917;SDS011;22011;59.912;30.300;2023-08-01T01:13:39;24.55;;;20.25;;
35917;SDS011;22011;59.912;30.300;2023-08-01T01:16:07;27.25;;;20.95;;
35917;SDS011;22011;59.912;30.300;2023-08-01T01:18:36;29.05;;;20.77;;
35917;SDS011;22011;59.912;30.300;2023-08-01T01:21:05;25.93;;;20.97;;
35917;SDS011;22011;59.912;30.300;2023-08-01T01:23:33;26.93;;;20.40;;
35917;SDS011;22011;59.912;30.300;2023-08-01T01:26:02;30.88;;;22.88;;
35917;SDS011;22011;59.912;30.300;2023-08-01T01:28:31;26.83;;;20.33;;
35917;SDS011;22011;59.912;30.300;2023-08-01T01:30:59;28.27;;;20.58;;
35917;SDS011;22011;59.912;30.300;2023-08-01T01:33:28;21.83;;;19.43;;
35917;SDS011;22011;59.912;30.300;2023-08-01T01:35:56;26.55;;;19.77;;
35917;SDS011;22011;59.912;30.300;2023-08-01T01:38:25;25.70;;;19.95;;
35917;SDS011;22011;59.912;30.300;2023-08-01T01:40:53;22.83;;;19.90;;
35917;SDS011;22011;59.912;30.300;2023-08-01T01:43:20;23.63;;;18.73;;
35917;SDS011;22011;59.912;30.300;2023-08-01T01:45:48;22.88;;;20.42;;
35917;SDS011;22011;59.912;30.300;2023-08-01T01:48:16;25.73;;;20.27;;
35917;SDS011;22011;59.912;30.300;2023-08-01T01:50:43;23.13;;;19.80;;
35917;SDS011;22011;59.912;30.300;2023-08-01T01:53:11;23.48;;;19.45;;
35917;SDS011;22011;59.912;30.300;2023-08-01T01:55:40;24.95;;;20.30;;
35917;SDS011;22011;59.912;30.300;2023-08-01T01:58:10;26.15;;;20.63;;
35917;SDS011;22011;59.912;30.300;2023-08-01T02:00:38;27.83;;;21.00;;
35917;SDS011;22011;59.912;30.300;2023-08-01T02:03:06;25.00;;;20.33;;
35917;SDS011;22011;59.912;30.300;2023-08-01T02:08:03;25.23;;;19.73;;
35917;SDS011;22011;59.912;30.300;2023-08-01T02:10:31;29.63;;;20.73;;
35917;SDS011;22011;59.912;30.300;2023-08-01T02:13:00;27.35;;;19.33;;
35917;SDS011;22011;59.912;30.300;2023-08-01T02:15:28;27.45;;;19.23;;
35917;SDS011;22011;59.912;30.300;2023-08-01T02:17:55;35.10;;;20.23;;
35917;SDS011;22011;59.912;30.300;2023-08-01T02:20:24;22.55;;;18.73;;
35917;SDS011;22011;59.912;30.300;2023-08-01T02:22:52;22.95;;;19.00;;
35917;SDS011;22011;59.912;30.300;2023-08-01T02:25:20;22.48;;;19.23;;
35917;SDS011;22011;59.912;30.300;2023-08-01T02:27:48;27.75;;;20.30;;
35917;SDS011;22011;59.912;30.300;2023-08-01T02:30:17;28.80;;;21.85;;
35917;SDS011;22011;59.912;30.300;2023-08-01T02:32:44;28.15;;;20.60;;
35917;SDS011;22011;59.912;30.300;2023-08-01T02:35:14;28.05;;;19.55;;
35917;SDS011;22011;59.912;30.300;2023-08-01T02:37:41;26.70;;;20.05;;
35917;SDS011;22011;59.912;30.300;2023-08-01T02:40:09;25.23;;;19.65;;
35917;SDS011;22011;59.912;30.300;2023-08-01T02:42:38;22.92;;;19.80;;
35917;SDS011;22011;59.912;30.300;2023-08-01T02:45:06;24.27;;;19.48;;
35917;SDS011;22011;59.912;30.300;2023-08-01T02:47:35;26.75;;;18.77;;
35917;SDS011;22011;59.912;30.300;2023-08-01T02:50:04;26.25;;;20.23;;
35917;SDS011;22011;59.912;30.300;2023-08-01T02:52:32;25.38;;;19.60;;
35917;SDS011;22011;59.912;30.300;2023-08-01T02:55:00;34.05;;;20.88;;
35917;SDS011;22011;59.912;30.300;2023-08-01T02:57:27;23.73;;;18.63;;
35917;SDS011;22011;59.912;30.300;2023-08-01T02:59:55;26.55;;;19.08;;
35917;SDS011;22011;59.912;30.300;2023-08-01T03:02:22;25.08;;;20.70;;
35917;SDS011;22011;59.912;30.300;2023-08-01T03:04:51;28.23;;;20.20;;
35917;SDS011;22011;59.912;30.300;2023-08-01T03:07:19;28.88;;;19.88;;
35917;SDS011;22011;59.912;30.300;2023-08-01T03:09:47;24.63;;;19.80;;
35917;SDS011;22011;59.912;30.300;2023-08-01T03:12:15;24.10;;;19.73;;
35917;SDS011;22011;59.912;30.300;2023-08-01T03:14:42;26.27;;;20.27;;
35917;SDS011;22011;59.912;30.300;2023-08-01T03:17:10;21.77;;;19.23;;
35917;SDS011;22011;59.912;30.300;2023-08-01T03:19:38;23.30;;;20.05;;
35917;SDS011;22011;59.912;30.300;2023-08-01T03:22:07;27.35;;;19.02;;
35917;SDS011;22011;59.912;30.300;2023-08-01T03:24:35;21.57;;;19.10;;
35917;SDS011;22011;59.912;30.300;2023-08-01T03:27:03;21.83;;;18.90;;
35917;SDS011;22011;59.912;30.300;2023-08-01T03:29:31;24.13;;;19.23;;
35917;SDS011;22011;59.912;30.300;2023-08-01T03:32:00;24.02;;;17.80;;
35917;SDS011;22011;59.912;30.300;2023-08-01T03:34:28;22.13;;;19.70;;
35917;SDS011;22011;59.912;30.300;2023-08-01T03:36:55;24.00;;;18.45;;
35917;SDS011;22011;59.912;30.300;2023-08-01T03:39:25;22.63;;;18.42;;
35917;SDS011;22011;59.912;30.300;2023-08-01T03:41:52;21.42;;;19.13;;
35917;SDS011;22011;59.912;30.300;2023-08-01T03:44:20;20.20;;;18.10;;
35917;SDS011;22011;59.912;30.300;2023-08-01T03:46:49;22.92;;;18.40;;
35917;SDS011;22011;59.912;30.300;2023-08-01T03:49:16;23.02;;;19.30;;
35917;SDS011;22011;59.912;30.300;2023-08-01T03:51:44;27.58;;;19.10;;
35917;SDS011;22011;59.912;30.300;2023-08-01T03:54:12;20.60;;;18.40;;
35917;SDS011;22011;59.912;30.300;2023-08-01T03:56:41;20.45;;;18.23;;
35917;SDS011;22011;59.912;30.300;2023-08-01T03:59:10;18.25;;;16.30;;
35917;SDS011;22011;59.912;30.300;2023-08-01T04:01:38;18.95;;;16.60;;
35917;SDS011;22011;59.912;30.300;2023-08-01T04:04:06;17.77;;;14.43;;
35917;SDS011;22011;59.912;30.300;2023-08-01T04:06:34;15.40;;;13.55;;
35917;SDS011;22011;59.912;30.300;2023-08-01T04:09:01;15.63;;;13.95;;
35917;SDS011;22011;59.912;30.300;2023-08-01T04:11:29;14.48;;;12.65;;
35917;SDS011;22011;59.912;30.300;2023-08-01T04:13:58;15.40;;;11.55;;
35917;SDS011;22011;59.912;30.300;2023-08-01T04:16:26;13.85;;;11.15;;
35917;SDS011;22011;59.912;30.300;2023-08-01T04:18:53;14.32;;;11.38;;
35917;SDS011;22011;59.912;30.300;2023-08-01T04:21:21;11.45;;;10.23;;
35917;SDS011;22011;59.912;30.300;2023-08-01T04:23:49;11.40;;;7.95;;
35917;SDS011;22011;59.912;30.300;2023-08-01T04:26:16;8.48;;;7.32;;
35917;SDS011;22011;59.912;30.300;2023-08-01T04:28:45;7.50;;;5.18;;
35917;SDS011;22011;59.912;30.300;2023-08-01T04:31:15;7.15;;;5.25;;
35917;SDS011;22011;59.912;30.300;2023-08-01T04:33:42;8.63;;;5.65;;
35917;SDS011;22011;59.912;30.300;2023-08-01T04:36:10;6.22;;;5.40;;
35917;SDS011;22011;59.912;30.300;2023-08-01T04:38:38;9.13;;;6.75;;
35917;SDS011;22011;59.912;30.300;2023-08-01T04:41:05;8.43;;;6.32;;
35917;SDS011;22011;59.912;30.300;2023-08-01T04:43:34;13.48;;;6.43;;
35917;SDS011;22011;59.912;30.300;2023-08-01T04:46:01;7.88;;;6.47;;
35917;SDS011;22011;59.912;30.300;2023-08-01T04:48:30;10.63;;;7.65;;
35917;SDS011;22011;59.912;30.300;2023-08-01T04:50:58;9.43;;;8.38;;
35917;SDS011;22011;59.912;30.300;2023-08-01T04:53:25;12.90;;;7.57;;
35917;SDS011;22011;59.912;30.300;2023-08-01T04:55:53;9.90;;;7.43;;
35917;SDS011;22011;59.912;30.300;2023-08-01T04:58:20;11.00;;;7.80;;
35917;SDS011;22011;59.912;30.300;2023-08-01T05:00:48;9.80;;;7.38;;
35917;SDS011;22011;59.912;30.300;2023-08-01T05:03:16;8.77;;;7.15;;
35917;SDS011;22011;59.912;30.300;2023-08-01T05:05:45;9.23;;;7.38;;
35917;SDS011;22011;59.912;30.300;2023-08-01T05:08:12;7.05;;;6.35;;
35917;SDS011;22011;59.912;30.300;2023-08-01T05:10:40;7.78;;;6.82;;
35917;SDS011;22011;59.912;30.300;2023-08-01T05:13:08;9.50;;;6.70;;
35917;SDS011;22011;59.912;30.300;2023-08-01T05:15:35;9.25;;;8.25;;
35917;SDS011;22011;59.912;30.300;2023-08-01T05:18:03;11.80;;;6.75;;
35917;SDS011;22011;59.912;30.300;2023-08-01T05:20:30;9.52;;;8.07;;
35917;SDS011;22011;59.912;30.300;2023-08-01T05:23:00;9.05;;;7.55;;
35917;SDS011;22011;59.912;30.300;2023-08-01T05:25:28;10.53;;;6.03;;
35917;SDS011;22011;59.912;30.300;2023-08-01T05:27:56;10.07;;;7.00;;
35917;SDS011;22011;59.912;30.300;2023-08-01T05:30:23;10.85;;;7.60;;
35917;SDS011;22011;59.912;30.300;2023-08-01T05:32:51;13.90;;;8.00;;
35917;SDS011;22011;59.912;30.300;2023-08-01T05:35:20;9.82;;;8.18;;
35917;SDS011;22011;59.912;30.300;2023-08-01T05:37:48;8.25;;;7.45;;
35917;SDS011;22011;59.912;30.300;2023-08-01T05:40:17;9.98;;;7.05;;
35917;SDS011;22011;59.912;30.300;2023-08-01T05:42:44;7.47;;;6.22;;
35917;SDS011;22011;59.912;30.300;2023-08-01T05:45:12;8.82;;;5.72;;
35917;SDS011;22011;59.912;30.300;2023-08-01T05:47:40;7.75;;;5.53;;
35917;SDS011;22011;59.912;30.300;2023-08-01T05:50:08;11.43;;;5.60;;
35917;SDS011;22011;59.912;30.300;2023-08-01T05:52:36;9.80;;;5.32;;
35917;SDS011;22011;59.912;30.300;2023-08-01T05:55:04;8.25;;;5.05;;
35917;SDS011;22011;59.912;30.300;2023-08-01T05:57:34;8.65;;;4.55;;
35917;SDS011;22011;59.912;30.300;2023-08-01T06:00:01;10.90;;;4.40;;
35917;SDS011;22011;59.912;30.300;2023-08-01T06:02:38;8.63;;;4.22;;
35917;SDS011;22011;59.912;30.300;2023-08-01T06:05:06;11.85;;;4.70;;
35917;SDS011;22011;59.912;30.300;2023-08-01T06:07:34;6.32;;;4.72;;
35917;SDS011;22011;59.912;30.300;2023-08-01T06:10:01;13.60;;;4.72;;
35917;SDS011;22011;59.912;30.300;2023-08-01T06:12:30;12.70;;;4.53;;
35917;SDS011;22011;59.912;30.300;2023-08-01T06:14:59;7.38;;;4.20;;
35917;SDS011;22011;59.912;30.300;2023-08-01T06:17:26;6.93;;;4.40;;
35917;SDS011;22011;59.912;30.300;2023-08-01T06:19:54;5.75;;;4.47;;
35917;SDS011;22011;59.912;30.300;2023-08-01T06:22:21;6.80;;;4.40;;
35917;SDS011;22011;59.912;30.300;2023-08-01T06:24:49;7.45;;;4.45;;
35917;SDS011;22011;59.912;30.300;2023-08-01T06:27:17;13.90;;;5.22;;
35917;SDS011;22011;59.912;30.300;2023-08-01T06:29:44;6.65;;;4.60;;
35917;SDS011;22011;59.912;30.300;2023-08-01T06:32:13;14.00;;;5.15;;
35917;SDS011;22011;59.912;30.300;2023-08-01T06:34:41;5.90;;;3.67;;
35917;SDS011;22011;59.912;30.300;2023-08-01T06:37:08;5.43;;;4.07;;
35917;SDS011;22011;59.912;30.300;2023-08-01T06:39:37;7.20;;;3.88;;
35917;SDS011;22011;59.912;30.300;2023-08-01T06:42:05;17.70;;;4.70;;
35917;SDS011;22011;59.912;30.300;2023-08-01T06:44:33;7.55;;;3.90;;
35917;SDS011;22011;59.912;30.300;2023-08-01T06:47:01;10.25;;;3.83;;
35917;SDS011;22011;59.912;30.300;2023-08-01T06:49:29;8.23;;;2.95;;
35917;SDS011;22011;59.912;30.300;2023-08-01T06:51:57;4.13;;;3.40;;
35917;SDS011;22011;59.912;30.300;2023-08-01T06:54:25;5.38;;;2.80;;
35917;SDS011;22011;59.912;30.300;2023-08-01T06:56:52;4.65;;;3.15;;
35917;SDS011;22011;59.912;30.300;2023-08-01T06:59:20;7.53;;;3.65;;
35917;SDS011;22011;59.912;30.300;2023-08-01T07:01:48;4.78;;;3.50;;
35917;SDS011;22011;59.912;30.300;2023-08-01T07:04:15;7.43;;;3.55;;
35917;SDS011;22011;59.912;30.300;2023-08-01T07:06:44;5.13;;;3.10;;
35917;SDS011;22011;59.912;30.300;2023-08-01T07:09:12;10.50;;;3.30;;
35917;SDS011;22011;59.912;30.300;2023-08-01T07:11:41;7.40;;;3.40;;
35917;SDS011;22011;59.912;30.300;2023-08-01T07:14:08;3.65;;;2.78;;
35917;SDS011;22011;59.912;30.300;2023-08-01T07:16:36;4.07;;;3.10;;
35917;SDS011;22011;59.912;30.300;2023-08-01T07:19:03;6.88;;;3.08;;
35917;SDS011;22011;59.912;30.300;2023-08-01T07:21:31;5.97;;;2.72;;
35917;SDS011;22011;59.912;30.300;2023-08-01T07:24:00;5.40;;;3.08;;
35917;SDS011;22011;59.912;30.300;2023-08-01T07:26:28;3.92;;;2.90;;
35917;SDS011;22011;59.912;30.300;2023-08-01T07:28:55;7.20;;;2.78;;
35917;SDS011;22011;59.912;30.300;2023-08-01T07:31:23;6.47;;;3.13;;
35917;SDS011;22011;59.912;30.300;2023-08-01T07:33:51;4.63;;;3.00;;
35917;SDS011;22011;59.912;30.300;2023-08-01T07:36:18;5.47;;;3.20;;
35917;SDS011;22011;59.912;30.300;2023-08-01T07:38:47;4.25;;;3.30;;
35917;SDS011;22011;59.912;30.300;2023-08-01T07:41:16;5.35;;;2.80;;
35917;SDS011;22011;59.912;30.300;2023-08-01T07:43:44;6.60;;;2.75;;
35917;SDS011;22011;59.912;30.300;2023-08-01T07:46:11;3.20;;;2.58;;
35917;SDS011;22011;59.912;30.300;2023-08-01T07:48:39;12.82;;;3.70;;
35917;SDS011;22011;59.912;30.300;2023-08-01T07:51:06;5.07;;;3.20;;
35917;SDS011;22011;59.912;30.300;2023-08-01T07:53:35;7.05;;;3.47;;
35917;SDS011;22011;59.912;30.300;2023-08-01T07:56:03;7.95;;;3.45;;
35917;SDS011;22011;59.912;30.300;2023-08-01T07:58:34;4.55;;;3.35;;
35917;SDS011;22011;59.912;30.300;2023-08-01T08:01:03;5.82;;;3.33;;
35917;SDS011;22011;59.912;30.300;2023-08-01T08:03:31;11.32;;;3.10;;
35917;SDS011;22011;59.912;30.300;2023-08-01T08:05:59;4.68;;;3.45;;
35917;SDS011;22011;59.912;30.300;2023-08-01T08:08:26;7.75;;;3.75;;
35917;SDS011;22011;59.912;30.300;2023-08-01T08:10:54;7.72;;;3.38;;
35917;SDS011;22011;59.912;30.300;2023-08-01T08:13:22;5.57;;;3.40;;
35917;SDS011;22011;59.912;30.300;2023-08-01T08:15:51;7.15;;;3.70;;
35917;SDS011;22011;59.912;30.300;2023-08-01T08:18:18;9.48;;;4.57;;
35917;SDS011;22011;59.912;30.300;2023-08-01T08:20:46;16.75;;;4.35;;
35917;SDS011;22011;59.912;30.300;2023-08-01T08:23:14;7.47;;;3.47;;
35917;SDS011;22011;59.912;30.300;2023-08-01T08:25:41;13.38;;;4.60;;
35917;SDS011;22011;59.912;30.300;2023-08-01T08:28:11;11.25;;;3.72;;
35917;SDS011;22011;59.912;30.300;2023-08-01T08:30:39;7.20;;;3.78;;
35917;SDS011;22011;59.912;30.300;2023-08-01T08:33:08;10.82;;;4.65;;
35917;SDS011;22011;59.912;30.300;2023-08-01T08:35:36;6.45;;;3.80;;
35917;SDS011;22011;59.912;30.300;2023-08-01T08:38:03;4.40;;;4.00;;
35917;SDS011;22011;59.912;30.300;2023-08-01T08:40:32;10.38;;;3.60;;
35917;SDS011;22011;59.912;30.300;2023-08-01T08:43:01;12.95;;;5.43;;
35917;SDS011;22011;59.912;30.300;2023-08-01T08:45:31;6.57;;;3.67;;
35917;SDS011;22011;59.912;30.300;2023-08-01T08:48:02;4.55;;;3.50;;
35917;SDS011;22011;59.912;30.300;2023-08-01T08:50:37;5.38;;;3.63;;
35917;SDS011;22011;59.912;30.300;2023-08-01T08:53:06;5.43;;;3.38;;
35917;SDS011;22011;59.912;30.300;2023-08-01T08:55:38;7.57;;;3.30;;
35917;SDS011;22011;59.912;30.300;2023-08-01T08:58:07;10.97;;;3.30;;
35917;SDS011;22011;59.912;30.300;2023-08-01T09:00:35;3.75;;;3.28;;
35917;SDS011;22011;59.912;30.300;2023-08-01T09:03:04;12.82;;;3.25;;
35917;SDS011;22011;59.912;30.300;2023-08-01T09:05:33;6.90;;;3.17;;
35917;SDS011;22011;59.912;30.300;2023-08-01T09:08:10;4.10;;;3.25;;
35917;SDS011;22011;59.912;30.300;2023-08-01T09:10:43;10.45;;;3.65;;
35917;SDS011;22011;59.912;30.300;2023-08-01T09:13:10;5.35;;;3.05;;
35917;SDS011;22011;59.912;30.300;2023-08-01T09:15:38;7.00;;;3.83;;
35917;SDS011;22011;59.912;30.300;2023-08-01T09:18:08;16.08;;;3.72;;
35917;SDS011;22011;59.912;30.300;2023-08-01T09:20:39;3.97;;;3.53;;
35917;SDS011;22011;59.912;30.300;2023-08-01T09:23:10;9.55;;;3.40;;
35917;SDS011;22011;59.912;30.300;2023-08-01T09:25:38;6.45;;;3.20;;
35917;SDS011;22011;59.912;30.300;2023-08-01T09:28:16;4.38;;;3.17;;
35917;SDS011;22011;59.912;30.300;2023-08-01T09:30:46;3.40;;;2.63;;
35917;SDS011;22011;59.912;30.300;2023-08-01T09:33:15;4.07;;;2.90;;
35917;SDS011;22011;59.912;30.300;2023-08-01T09:35:43;4.88;;;2.60;;
35917;SDS011;22011;59.912;30.300;2023-08-01T09:38:13;5.60;;;2.60;;
35917;SDS011;22011;59.912;30.300;2023-08-01T09:40:42;5.25;;;3.25;;
35917;SDS011;22011;59.912;30.300;2023-08-01T09:43:11;6.47;;;2.65;;
35917;SDS011;22011;59.912;30.300;2023-08-01T09:45:49;3.78;;;2.88;;
35917;SDS011;22011;59.912;30.300;2023-08-01T09:48:23;6.78;;;2.67;;
35917;SDS011;22011;59.912;30.300;2023-08-01T09:51:02;7.15;;;2.95;;
35917;SDS011;22011;59.912;30.300;2023-08-01T09:53:33;6.15;;;3.35;;
35917;SDS011;22011;59.912;30.300;2023-08-01T09:56:01;3.10;;;2.80;;
35917;SDS011;22011;59.912;30.300;2023-08-01T09:58:30;9.15;;;2.42;;
35917;SDS011;22011;59.912;30.300;2023-08-01T10:01:00;10.60;;;2.45;;
35917;SDS011;22011;59.912;30.300;2023-08-01T10:03:28;7.05;;;3.22;;
35917;SDS011;22011;59.912;30.300;2023-08-01T10:05:56;5.13;;;2.95;;
35917;SDS011;22011;59.912;30.300;2023-08-01T10:08:26;4.80;;;2.25;;
35917;SDS011;22011;59.912;30.300;2023-08-01T10:10:59;4.75;;;2.40;;
35917;SDS011;22011;59.912;30.300;2023-08-01T10:13:30;5.65;;;2.42;;
35917;SDS011;22011;59.912;30.300;2023-08-01T10:15:59;6.07;;;2.87;;
35917;SDS011;22011;59.912;30.300;2023-08-01T10:18:28;10.25;;;2.30;;
35917;SDS011;22011;59.912;30.300;2023-08-01T10:20:56;9.95;;;5.13;;
35917;SDS011;22011;59.912;30.300;2023-08-01T10:23:24;6.32;;;2.90;;
35917;SDS011;22011;59.912;30.300;2023-08-01T10:25:53;5.32;;;3.17;;
35917;SDS011;22011;59.912;30.300;2023-08-01T10:28:31;3.65;;;2.40;;
35917;SDS011;22011;59.912;30.300;2023-08-01T10:31:09;2.40;;;2.20;;
35917;SDS011;22011;59.912;30.300;2023-08-01T10:33:37;6.70;;;2.10;;
35917;SDS011;22011;59.912;30.300;2023-08-01T10:36:15;4.53;;;1.70;;
35917;SDS011;22011;59.912;30.300;2023-08-01T10:38:46;2.47;;;1.80;;
35917;SDS011;22011;59.912;30.300;2023-08-01T10:41:18;3.83;;;1.65;;
35917;SDS011;22011;59.912;30.300;2023-08-01T10:43:51;5.90;;;2.30;;
35917;SDS011;22011;59.912;30.300;2023-08-01T10:46:18;6.35;;;2.55;;
35917;SDS011;22011;59.912;30.300;2023-08-01T10:48:49;7.65;;;2.42;;
35917;SDS011;22011;59.912;30.300;2023-08-01T10:51:18;4.10;;;2.35;;
35917;SDS011;22011;59.912;30.300;2023-08-01T10:53:46;4.65;;;2.38;;
35917;SDS011;22011;59.912;30.300;2023-08-01T10:56:17;7.93;;;2.25;;
35917;SDS011;22011;59.912;30.300;2023-08-01T10:58:46;9.45;;;2.40;;
35917;SDS011;22011;59.912;30.300;2023-08-01T11:01:15;7.70;;;2.58;;
35917;SDS011;22011;59.912;30.300;2023-08-01T11:03:43;14.90;;;2.53;;
35917;SDS011;22011;59.912;30.300;2023-08-01T11:06:10;11.80;;;2.75;;
35917;SDS011;22011;59.912;30.300;2023-08-01T11:08:38;5.65;;;2.35;;
35917;SDS011;22011;59.912;30.300;2023-08-01T11:11:08;4.38;;;2.20;;
35917;SDS011;22011;59.912;30.300;2023-08-01T11:13:38;5.13;;;2.58;;
35917;SDS011;22011;59.912;30.300;2023-08-01T11:16:06;7.00;;;2.28;;
35917;SDS011;22011;59.912;30.300;2023-08-01T11:18:41;4.10;;;2.28;;
35917;SDS011;22011;59.912;30.300;2023-08-01T11:21:09;4.20;;;1.90;;
35917;SDS011;22011;59.912;30.300;2023-08-01T11:23:37;11.85;;;2.00;;
35917;SDS011;22011;59.912;30.300;2023-08-01T11:26:06;4.20;;;1.67;;
35917;SDS011;22011;59.912;30.300;2023-08-01T11:28:35;3.60;;;2.17;;
35917;SDS011;22011;59.912;30.300;2023-08-01T11:31:10;12.38;;;2.65;;
35917;SDS011;22011;59.912;30.300;2023-08-01T11:33:38;8.23;;;2.55;;
35917;SDS011;22011;59.912;30.300;2023-08-01T11:36:07;6.38;;;2.40;;
35917;SDS011;22011;59.912;30.300;2023-08-01T11:38:36;21.67;;;2.10;;
35917;SDS011;22011;59.912;30.300;2023-08-01T11:41:04;6.32;;;1.90;;
35917;SDS011;22011;59.912;30.300;2023-08-01T11:43:37;4.40;;;2.58;;
35917;SDS011;22011;59.912;30.300;2023-08-01T11:46:05;12.82;;;2.08;;
35917;SDS011;22011;59.912;30.300;2023-08-01T11:48:33;12.55;;;3.13;;
35917;SDS011;22011;59.912;30.300;2023-08-01T11:51:01;10.68;;;2.75;;
35917;SDS011;22011;59.912;30.300;2023-08-01T11:53:31;4.75;;;2.67;;
35917;SDS011;22011;59.912;30.300;2023-08-01T11:56:04;8.40;;;2.17;;
35917;SDS011;22011;59.912;30.300;2023-08-01T11:58:32;4.72;;;2.25;;
35917;SDS011;22011;59.912;30.300;2023-08-01T12:01:01;8.02;;;3.20;;
35917;SDS011;22011;59.912;30.300;2023-08-01T12:03:30;7.53;;;2.65;;
35917;SDS011;22011;59.912;30.300;2023-08-01T12:06:02;7.80;;;1.95;;
35917;SDS011;22011;59.912;30.300;2023-08-01T12:08:34;9.02;;;1.90;;
35917;SDS011;22011;59.912;30.300;2023-08-01T12:11:02;8.95;;;2.45;;
35917;SDS011;22011;59.912;30.300;2023-08-01T12:13:29;7.10;;;1.88;;
35917;SDS011;22011;59.912;30.300;2023-08-01T12:15:57;5.18;;;1.60;;
35917;SDS011;22011;59.912;30.300;2023-08-01T12:18:26;10.07;;;2.40;;
35917;SDS011;22011;59.912;30.300;2023-08-01T12:20:55;6.78;;;2.10;;
35917;SDS011;22011;59.912;30.300;2023-08-01T12:23:23;4.30;;;1.92;;
35917;SDS011;22011;59.912;30.300;2023-08-01T12:25:51;3.47;;;1.30;;
35917;SDS011;22011;59.912;30.300;2023-08-01T12:28:19;9.32;;;1.83;;
35917;SDS011;22011;59.912;30.300;2023-08-01T12:30:47;7.25;;;2.95;;
35917;SDS011;22011;59.912;30.300;2023-08-01T12:33:17;7.13;;;2.50;;
35917;SDS011;22011;59.912;30.300;2023-08-01T12:35:44;15.95;;;2.67;;
35917;SDS011;22011;59.912;30.300;2023-08-01T12:38:12;13.50;;;2.70;;
35917;SDS011;22011;59.912;30.300;2023-08-01T12:40:40;10.65;;;2.80;;
35917;SDS011;22011;59.912;30.300;2023-08-01T12:43:08;3.38;;;2.05;;
35917;SDS011;22011;59.912;30.300;2023-08-01T12:45:36;6.57;;;2.42;;
35917;SDS011;22011;59.912;30.300;2023-08-01T12:48:04;7.05;;;1.83;;
35917;SDS011;22011;59.912;30.300;2023-08-01T12:50:31;5.70;;;2.17;;
35917;SDS011;22011;59.912;30.300;2023-08-01T12:52:59;11.23;;;2.50;;
35917;SDS011;22011;59.912;30.300;2023-08-01T12:55:27;2.90;;;2.03;;
35917;SDS011;22011;59.912;30.300;2023-08-01T12:57:54;3.25;;;1.92;;
35917;SDS011;22011;59.912;30.300;2023-08-01T13:00:23;8.05;;;2.17;;
35917;SDS011;22011;59.912;30.300;2023-08-01T13:02:51;10.13;;;2.22;;
35917;SDS011;22011;59.912;30.300;2023-08-01T13:05:18;7.45;;;2.28;;
35917;SDS011;22011;59.912;30.300;2023-08-01T13:07:47;10.70;;;2.25;;
35917;SDS011;22011;59.912;30.300;2023-08-01T13:10:15;1.90;;;1.40;;
35917;SDS011;22011;59.912;30.300;2023-08-01T13:12:43;1.95;;;1.58;;
35917;SDS011;22011;59.912;30.300;2023-08-01T13:15:11;4.63;;;1.98;;
35917;SDS011;22011;59.912;30.300;2023-08-01T13:17:39;54.65;;;3.45;;
35917;SDS011;22011;59.912;30.300;2023-08-01T13:20:07;10.13;;;2.80;;
35917;SDS011;22011;59.912;30.300;2023-08-01T13:22:35;7.80;;;2.22;;
35917;SDS011;22011;59.912;30.300;2023-08-01T13:25:03;11.32;;;2.65;;
35917;SDS011;22011;59.912;30.300;2023-08-01T13:27:33;12.75;;;2.47;;
35917;SDS011;22011;59.912;30.300;2023-08-01T13:30:01;2.92;;;2.30;;
35917;SDS011;22011;59.912;30.300;2023-08-01T13:32:29;7.22;;;2.47;;
35917;SDS011;22011;59.912;30.300;2023-08-01T13:34:58;4.00;;;1.80;;
35917;SDS011;22011;59.912;30.300;2023-08-01T13:37:26;5.72;;;2.30;;
35917;SDS011;22011;59.912;30.300;2023-08-01T13:39:55;3.97;;;2.00;;
35917;SDS011;22011;59.912;30.300;2023-08-01T13:42:23;3.92;;;2.05;;
35917;SDS011;22011;59.912;30.300;2023-08-01T13:44:51;3.83;;;1.90;;
35917;SDS011;22011;59.912;30.300;2023-08-01T13:47:21;8.90;;;2.53;;
35917;SDS011;22011;59.912;30.300;2023-08-01T13:49:48;10.02;;;2.30;;
35917;SDS011;22011;59.912;30.300;2023-08-01T13:52:17;11.48;;;2.97;;
35917;SDS011;22011;59.912;30.300;2023-08-01T13:54:45;19.80;;;4.18;;
35917;SDS011;22011;59.912;30.300;2023-08-01T13:57:13;8.75;;;1.75;;
35917;SDS011;22011;59.912;30.300;2023-08-01T13:59:40;11.25;;;2.70;;
35917;SDS011;22011;59.912;30.300;2023-08-01T14:02:08;6.20;;;2.20;;
35917;SDS011;22011;59.912;30.300;2023-08-01T14:04:35;5.18;;;2.33;;
35917;SDS011;22011;59.912;30.300;2023-08-01T14:07:03;8.93;;;2.83;;
35917;SDS011;22011;59.912;30.300;2023-08-01T14:09:32;4.90;;;2.50;;
35917;SDS011;22011;59.912;30.300;2023-08-01T14:12:02;3.38;;;1.83;;
35917;SDS011;22011;59.912;30.300;2023-08-01T14:14:30;6.95;;;1.90;;
35917;SDS011;22011;59.912;30.300;2023-08-01T14:16:57;18.85;;;2.60;;
35917;SDS011;22011;59.912;30.300;2023-08-01T14:19:25;20.92;;;4.20;;
35917;SDS011;22011;59.912;30.300;2023-08-01T14:21:55;5.40;;;2.05;;
35917;SDS011;22011;59.912;30.300;2023-08-01T14:24:23;4.03;;;1.20;;
35917;SDS011;22011;59.912;30.300;2023-08-01T14:26:51;7.90;;;1.75;;
35917;SDS011;22011;59.912;30.300;2023-08-01T14:29:19;8.63;;;2.22;;
35917;SDS011;22011;59.912;30.300;2023-08-01T14:31:48;6.20;;;1.90;;
35917;SDS011;22011;59.912;30.300;2023-08-01T14:34:16;11.82;;;2.28;;